Terminal Aerodrome Forecast
Issued by NWS

Current Version | Previous Version | Graphics & Text | Print | Product List | Glossary On
Versions: 1 2 3 4 5 6 7 8 9 10 11 12
026
FTUS41 KILN 241729
TAFLCK
TAF
KLCK 241729Z 2418/2518 13005KT P6SM SKC
     FM250000 11003KT P6SM SCT250=

USA.gov is the U.S. government's official web portal to all federal, state and local government web resources and services.